sensor_id;sensor_type;location;lat;lon;timestamp;temperature;humidity
2913;DHT22;1466;48.778;9.166;2023-04-24T00:00:57;14.10;99.90
2913;DHT22;1466;48.778;9.166;2023-04-24T00:03:24;14.10;99.90
2913;DHT22;1466;48.778;9.166;2023-04-24T00:05:49;14.10;99.90
2913;DHT22;1466;48.778;9.166;2023-04-24T00:08:16;14.10;99.90
2913;DHT22;1466;48.778;9.166;2023-04-24T00:10:42;14.10;99.90
2913;DHT22;1466;48.778;9.166;2023-04-24T00:13:08;14.00;99.90
2913;DHT22;1466;48.778;9.166;2023-04-24T00:15:33;14.00;99.90
2913;DHT22;1466;48.778;9.166;2023-04-24T00:17:59;14.00;99.90
2913;DHT22;1466;48.778;9.166;2023-04-24T00:20:27;14.10;99.90
2913;DHT22;1466;48.778;9.166;2023-04-24T00:22:53;14.10;99.90
2913;DHT22;1466;48.778;9.166;2023-04-24T00:25:19;14.10;99.90
2913;DHT22;1466;48.778;9.166;2023-04-24T00:27:44;14.10;99.90
2913;DHT22;1466;48.778;9.166;2023-04-24T00:30:10;14.20;99.90
2913;DHT22;1466;48.778;9.166;2023-04-24T00:32:36;14.20;99.90
2913;DHT22;1466;48.778;9.166;2023-04-24T00:35:01;14.20;99.90
2913;DHT22;1466;48.778;9.166;2023-04-24T00:37:27;14.30;99.90
2913;DHT22;1466;48.778;9.166;2023-04-24T00:39:53;14.30;99.90
2913;DHT22;1466;48.778;9.166;2023-04-24T00:42:20;14.30;99.90
2913;DHT22;1466;48.778;9.166;2023-04-24T00:44:45;14.30;99.90
2913;DHT22;1466;48.778;9.166;2023-04-24T00:47:12;14.30;99.90
2913;DHT22;1466;48.778;9.166;2023-04-24T00:49:38;14.30;99.90
2913;DHT22;1466;48.778;9.166;2023-04-24T00:52:04;14.40;99.90
2913;DHT22;1466;48.778;9.166;2023-04-24T00:54:37;14.30;99.90
2913;DHT22;1466;48.778;9.166;2023-04-24T00:57:05;14.30;99.90
2913;DHT22;1466;48.778;9.166;2023-04-24T00:59:32;14.30;99.90
2913;DHT22;1466;48.778;9.166;2023-04-24T01:01:58;14.40;99.90
2913;DHT22;1466;48.778;9.166;2023-04-24T01:04:24;14.40;99.90
2913;DHT22;1466;48.778;9.166;2023-04-24T01:06:51;14.40;99.90
2913;DHT22;1466;48.778;9.166;2023-04-24T01:09:18;14.40;99.90
2913;DHT22;1466;48.778;9.166;2023-04-24T01:11:44;14.40;99.90
2913;DHT22;1466;48.778;9.166;2023-04-24T01:14:10;14.40;99.90
2913;DHT22;1466;48.778;9.166;2023-04-24T01:16:36;14.40;99.90
2913;DHT22;1466;48.778;9.166;2023-04-24T01:19:04;14.30;99.90
2913;DHT22;1466;48.778;9.166;2023-04-24T01:21:30;14.30;99.90
2913;DHT22;1466;48.778;9.166;2023-04-24T01:23:59;14.30;99.90
2913;DHT22;1466;48.778;9.166;2023-04-24T01:26:25;14.30;99.90
2913;DHT22;1466;48.778;9.166;2023-04-24T01:28:51;14.40;99.90
2913;DHT22;1466;48.778;9.166;2023-04-24T01:31:17;14.40;99.90
2913;DHT22;1466;48.778;9.166;2023-04-24T01:33:43;14.40;99.90
2913;DHT22;1466;48.778;9.166;2023-04-24T01:36:10;14.40;99.90
2913;DHT22;1466;48.778;9.166;2023-04-24T01:38:37;14.30;99.90
2913;DHT22;1466;48.778;9.166;2023-04-24T01:41:02;14.30;99.90
2913;DHT22;1466;48.778;9.166;2023-04-24T01:43:28;14.30;99.90
2913;DHT22;1466;48.778;9.166;2023-04-24T01:45:54;14.20;99.90
2913;DHT22;1466;48.778;9.166;2023-04-24T01:48:20;14.20;99.90
2913;DHT22;1466;48.778;9.166;2023-04-24T01:50:46;14.20;99.90
2913;DHT22;1466;48.778;9.166;2023-04-24T01:53:11;14.20;99.90
2913;DHT22;1466;48.778;9.166;2023-04-24T01:55:37;14.30;99.90
2913;DHT22;1466;48.778;9.166;2023-04-24T01:58:03;14.30;99.90
2913;DHT22;1466;48.778;9.166;2023-04-24T02:00:28;14.20;99.90
2913;DHT22;1466;48.778;9.166;2023-04-24T02:02:54;14.20;99.90
2913;DHT22;1466;48.778;9.166;2023-04-24T02:05:19;14.20;99.90
2913;DHT22;1466;48.778;9.166;2023-04-24T02:07:45;14.20;99.90
2913;DHT22;1466;48.778;9.166;2023-04-24T02:10:11;14.10;99.90
2913;DHT22;1466;48.778;9.166;2023-04-24T02:12:37;14.10;99.90
2913;DHT22;1466;48.778;9.166;2023-04-24T02:15:03;14.10;99.90
2913;DHT22;1466;48.778;9.166;2023-04-24T02:17:29;14.20;99.90
2913;DHT22;1466;48.778;9.166;2023-04-24T02:19:56;14.10;99.90
2913;DHT22;1466;48.778;9.166;2023-04-24T02:22:21;14.10;99.90
2913;DHT22;1466;48.778;9.166;2023-04-24T02:24:47;14.10;99.90
2913;DHT22;1466;48.778;9.166;2023-04-24T02:27:12;14.10;99.90
2913;DHT22;1466;48.778;9.166;2023-04-24T02:29:38;14.10;99.90
2913;DHT22;1466;48.778;9.166;2023-04-24T02:32:04;14.00;99.90
2913;DHT22;1466;48.778;9.166;2023-04-24T02:34:29;14.00;99.90
2913;DHT22;1466;48.778;9.166;2023-04-24T02:36:55;14.00;99.90
2913;DHT22;1466;48.778;9.166;2023-04-24T02:39:21;14.10;99.90
2913;DHT22;1466;48.778;9.166;2023-04-24T02:41:46;14.00;99.90
2913;DHT22;1466;48.778;9.166;2023-04-24T02:44:12;14.00;99.90
2913;DHT22;1466;48.778;9.166;2023-04-24T02:46:38;14.00;99.90
2913;DHT22;1466;48.778;9.166;2023-04-24T02:49:03;14.00;99.90
2913;DHT22;1466;48.778;9.166;2023-04-24T02:51:29;14.00;99.90
2913;DHT22;1466;48.778;9.166;2023-04-24T02:53:55;14.10;99.90
2913;DHT22;1466;48.778;9.166;2023-04-24T02:56:20;14.10;99.90
2913;DHT22;1466;48.778;9.166;2023-04-24T02:58:46;14.10;99.90
2913;DHT22;1466;48.778;9.166;2023-04-24T03:01:11;14.00;99.90
2913;DHT22;1466;48.778;9.166;2023-04-24T03:03:38;14.00;99.90
2913;DHT22;1466;48.778;9.166;2023-04-24T03:06:04;14.00;99.90
2913;DHT22;1466;48.778;9.166;2023-04-24T03:08:34;14.00;99.90
2913;DHT22;1466;48.778;9.166;2023-04-24T03:11:00;13.90;99.90
2913;DHT22;1466;48.778;9.166;2023-04-24T03:13:26;13.90;99.90
2913;DHT22;1466;48.778;9.166;2023-04-24T03:15:51;13.90;99.90
2913;DHT22;1466;48.778;9.166;2023-04-24T03:18:18;13.90;99.90
2913;DHT22;1466;48.778;9.166;2023-04-24T03:20:45;13.80;99.90
2913;DHT22;1466;48.778;9.166;2023-04-24T03:23:11;13.70;99.90
2913;DHT22;1466;48.778;9.166;2023-04-24T03:25:37;13.80;99.90
2913;DHT22;1466;48.778;9.166;2023-04-24T03:28:03;13.80;99.90
2913;DHT22;1466;48.778;9.166;2023-04-24T03:30:28;13.70;99.90
2913;DHT22;1466;48.778;9.166;2023-04-24T03:32:54;13.80;99.90
2913;DHT22;1466;48.778;9.166;2023-04-24T03:35:19;13.80;99.90
2913;DHT22;1466;48.778;9.166;2023-04-24T03:37:47;13.80;99.90
2913;DHT22;1466;48.778;9.166;2023-04-24T03:40:12;13.80;99.90
2913;DHT22;1466;48.778;9.166;2023-04-24T03:42:38;13.70;99.90
2913;DHT22;1466;48.778;9.166;2023-04-24T03:45:04;13.80;99.90
2913;DHT22;1466;48.778;9.166;2023-04-24T03:47:30;13.80;99.90
2913;DHT22;1466;48.778;9.166;2023-04-24T03:49:55;13.80;99.90
2913;DHT22;1466;48.778;9.166;2023-04-24T03:52:21;13.70;99.90
2913;DHT22;1466;48.778;9.166;2023-04-24T03:54:46;13.60;99.90
2913;DHT22;1466;48.778;9.166;2023-04-24T03:57:12;13.50;99.90
2913;DHT22;1466;48.778;9.166;2023-04-24T03:59:38;13.50;99.90
2913;DHT22;1466;48.778;9.166;2023-04-24T04:02:03;13.40;99.90
2913;DHT22;1466;48.778;9.166;2023-04-24T04:04:29;13.40;99.90
2913;DHT22;1466;48.778;9.166;2023-04-24T04:06:54;13.40;99.90
2913;DHT22;1466;48.778;9.166;2023-04-24T04:09:20;13.40;99.90
2913;DHT22;1466;48.778;9.166;2023-04-24T04:11:46;13.40;99.90
2913;DHT22;1466;48.778;9.166;2023-04-24T04:14:12;13.50;99.90
2913;DHT22;1466;48.778;9.166;2023-04-24T04:16:37;13.50;99.90
2913;DHT22;1466;48.778;9.166;2023-04-24T04:19:03;13.50;99.90
2913;DHT22;1466;48.778;9.166;2023-04-24T04:21:29;13.50;99.90
2913;DHT22;1466;48.778;9.166;2023-04-24T04:23:56;13.60;99.90
2913;DHT22;1466;48.778;9.166;2023-04-24T04:26:22;13.60;99.90
2913;DHT22;1466;48.778;9.166;2023-04-24T04:28:51;13.60;99.90
2913;DHT22;1466;48.778;9.166;2023-04-24T04:31:17;13.50;99.90
2913;DHT22;1466;48.778;9.166;2023-04-24T04:33:42;13.30;99.90
2913;DHT22;1466;48.778;9.166;2023-04-24T04:36:08;13.10;99.90
2913;DHT22;1466;48.778;9.166;2023-04-24T04:38:34;13.00;99.90
2913;DHT22;1466;48.778;9.166;2023-04-24T04:41:02;13.00;99.90
2913;DHT22;1466;48.778;9.166;2023-04-24T04:43:28;13.00;99.90
2913;DHT22;1466;48.778;9.166;2023-04-24T04:45:53;13.00;99.90
2913;DHT22;1466;48.778;9.166;2023-04-24T04:48:22;13.00;99.90
2913;DHT22;1466;48.778;9.166;2023-04-24T04:50:47;12.90;99.90
2913;DHT22;1466;48.778;9.166;2023-04-24T04:53:13;12.70;99.90
2913;DHT22;1466;48.778;9.166;2023-04-24T04:55:38;12.60;99.90
2913;DHT22;1466;48.778;9.166;2023-04-24T04:58:04;12.70;99.90
2913;DHT22;1466;48.778;9.166;2023-04-24T05:00:29;12.70;99.90
2913;DHT22;1466;48.778;9.166;2023-04-24T05:03:01;12.70;99.90
2913;DHT22;1466;48.778;9.166;2023-04-24T05:05:26;12.80;99.90
2913;DHT22;1466;48.778;9.166;2023-04-24T05:07:52;12.70;99.90
2913;DHT22;1466;48.778;9.166;2023-04-24T05:10:17;12.70;99.90
2913;DHT22;1466;48.778;9.166;2023-04-24T05:12:43;12.70;99.90
2913;DHT22;1466;48.778;9.166;2023-04-24T05:15:09;12.80;99.90
2913;DHT22;1466;48.778;9.166;2023-04-24T05:17:35;12.80;99.90
2913;DHT22;1466;48.778;9.166;2023-04-24T05:20:01;12.80;99.90
2913;DHT22;1466;48.778;9.166;2023-04-24T05:22:28;12.90;99.90
2913;DHT22;1466;48.778;9.166;2023-04-24T05:24:53;12.80;99.90
2913;DHT22;1466;48.778;9.166;2023-04-24T05:27:19;12.80;99.90
2913;DHT22;1466;48.778;9.166;2023-04-24T05:29:45;12.90;99.90
2913;DHT22;1466;48.778;9.166;2023-04-24T05:32:11;12.90;99.90
2913;DHT22;1466;48.778;9.166;2023-04-24T05:34:37;13.00;99.90
2913;DHT22;1466;48.778;9.166;2023-04-24T05:37:02;13.10;99.90
2913;DHT22;1466;48.778;9.166;2023-04-24T05:39:28;13.20;99.90
2913;DHT22;1466;48.778;9.166;2023-04-24T05:41:54;13.20;99.90
2913;DHT22;1466;48.778;9.166;2023-04-24T05:44:23;13.20;99.90
2913;DHT22;1466;48.778;9.166;2023-04-24T05:46:48;13.10;99.90
2913;DHT22;1466;48.778;9.166;2023-04-24T05:49:14;13.10;99.90
2913;DHT22;1466;48.778;9.166;2023-04-24T05:51:39;13.20;99.90
2913;DHT22;1466;48.778;9.166;2023-04-24T05:54:05;13.20;99.90
2913;DHT22;1466;48.778;9.166;2023-04-24T05:56:31;13.20;99.90
2913;DHT22;1466;48.778;9.166;2023-04-24T05:58:56;13.20;99.90
2913;DHT22;1466;48.778;9.166;2023-04-24T06:01:22;13.20;99.90
2913;DHT22;1466;48.778;9.166;2023-04-24T06:03:48;13.20;99.90
2913;DHT22;1466;48.778;9.166;2023-04-24T06:06:13;13.20;99.90
2913;DHT22;1466;48.778;9.166;2023-04-24T06:08:39;13.20;99.90
2913;DHT22;1466;48.778;9.166;2023-04-24T06:11:04;13.20;99.90
2913;DHT22;1466;48.778;9.166;2023-04-24T06:13:30;13.20;99.90
2913;DHT22;1466;48.778;9.166;2023-04-24T06:15:56;13.20;99.90
2913;DHT22;1466;48.778;9.166;2023-04-24T06:18:21;13.20;99.90
2913;DHT22;1466;48.778;9.166;2023-04-24T06:20:47;13.20;99.90
2913;DHT22;1466;48.778;9.166;2023-04-24T06:23:13;13.20;99.90
2913;DHT22;1466;48.778;9.166;2023-04-24T06:25:38;13.20;99.90
2913;DHT22;1466;48.778;9.166;2023-04-24T06:28:04;13.30;99.90
2913;DHT22;1466;48.778;9.166;2023-04-24T06:30:30;13.40;99.90
2913;DHT22;1466;48.778;9.166;2023-04-24T06:32:56;13.50;99.90
2913;DHT22;1466;48.778;9.166;2023-04-24T06:35:22;13.40;99.90
2913;DHT22;1466;48.778;9.166;2023-04-24T06:37:48;13.50;99.90
2913;DHT22;1466;48.778;9.166;2023-04-24T06:40:13;13.50;99.90
2913;DHT22;1466;48.778;9.166;2023-04-24T06:42:39;13.60;99.90
2913;DHT22;1466;48.778;9.166;2023-04-24T06:45:05;13.60;99.90
2913;DHT22;1466;48.778;9.166;2023-04-24T06:47:31;13.70;99.90
2913;DHT22;1466;48.778;9.166;2023-04-24T06:49:57;13.60;99.90
2913;DHT22;1466;48.778;9.166;2023-04-24T06:52:23;13.60;99.90
2913;DHT22;1466;48.778;9.166;2023-04-24T06:54:48;13.70;99.90
2913;DHT22;1466;48.778;9.166;2023-04-24T06:57:14;13.80;99.90
2913;DHT22;1466;48.778;9.166;2023-04-24T06:59:41;13.90;99.90
2913;DHT22;1466;48.778;9.166;2023-04-24T07:02:07;14.00;99.90
2913;DHT22;1466;48.778;9.166;2023-04-24T07:04:32;14.10;99.90
2913;DHT22;1466;48.778;9.166;2023-04-24T07:06:58;14.20;99.90
2913;DHT22;1466;48.778;9.166;2023-04-24T07:09:25;14.40;99.90
2913;DHT22;1466;48.778;9.166;2023-04-24T07:11:51;14.50;99.90
2913;DHT22;1466;48.778;9.166;2023-04-24T07:14:18;14.40;99.90
2913;DHT22;1466;48.778;9.166;2023-04-24T07:16:43;14.40;99.60
2913;DHT22;1466;48.778;9.166;2023-04-24T07:19:10;14.40;99.40
2913;DHT22;1466;48.778;9.166;2023-04-24T07:21:36;14.30;99.40
2913;DHT22;1466;48.778;9.166;2023-04-24T07:24:01;14.20;99.40
2913;DHT22;1466;48.778;9.166;2023-04-24T07:26:29;14.10;99.60
2913;DHT22;1466;48.778;9.166;2023-04-24T07:28:55;14.20;99.50
2913;DHT22;1466;48.778;9.166;2023-04-24T07:31:21;14.10;98.90
2913;DHT22;1466;48.778;9.166;2023-04-24T07:33:47;14.20;98.40
2913;DHT22;1466;48.778;9.166;2023-04-24T07:36:12;14.30;98.10
2913;DHT22;1466;48.778;9.166;2023-04-24T07:38:45;14.40;97.90
2913;DHT22;1466;48.778;9.166;2023-04-24T07:41:12;14.60;97.20
2913;DHT22;1466;48.778;9.166;2023-04-24T07:43:37;14.70;96.30
2913;DHT22;1466;48.778;9.166;2023-04-24T07:46:03;14.80;96.00
2913;DHT22;1466;48.778;9.166;2023-04-24T07:48:28;14.80;95.00
2913;DHT22;1466;48.778;9.166;2023-04-24T07:50:54;14.80;94.10
2913;DHT22;1466;48.778;9.166;2023-04-24T07:53:20;14.70;94.10
2913;DHT22;1466;48.778;9.166;2023-04-24T07:55:46;14.60;93.50
2913;DHT22;1466;48.778;9.166;2023-04-24T07:58:12;14.60;93.70
2913;DHT22;1466;48.778;9.166;2023-04-24T08:00:37;14.40;93.10
2913;DHT22;1466;48.778;9.166;2023-04-24T08:03:03;14.40;93.60
2913;DHT22;1466;48.778;9.166;2023-04-24T08:05:28;14.50;93.70
2913;DHT22;1466;48.778;9.166;2023-04-24T08:07:54;14.40;92.40
2913;DHT22;1466;48.778;9.166;2023-04-24T08:10:23;14.30;92.50
2913;DHT22;1466;48.778;9.166;2023-04-24T08:12:49;14.20;92.50
2913;DHT22;1466;48.778;9.166;2023-04-24T08:15:15;14.10;92.70
2913;DHT22;1466;48.778;9.166;2023-04-24T08:17:40;14.10;92.60
2913;DHT22;1466;48.778;9.166;2023-04-24T08:20:06;14.00;92.60
2913;DHT22;1466;48.778;9.166;2023-04-24T08:22:35;14.00;92.40
2913;DHT22;1466;48.778;9.166;2023-04-24T08:25:01;14.10;92.70
2913;DHT22;1466;48.778;9.166;2023-04-24T08:27:27;14.10;92.50
2913;DHT22;1466;48.778;9.166;2023-04-24T08:29:57;14.20;92.70
2913;DHT22;1466;48.778;9.166;2023-04-24T08:32:23;14.20;92.30
2913;DHT22;1466;48.778;9.166;2023-04-24T08:34:48;14.20;92.30
2913;DHT22;1466;48.778;9.166;2023-04-24T08:37:14;14.20;92.40
2913;DHT22;1466;48.778;9.166;2023-04-24T08:39:40;14.20;92.10
2913;DHT22;1466;48.778;9.166;2023-04-24T08:42:05;14.20;92.20
2913;DHT22;1466;48.778;9.166;2023-04-24T08:44:34;14.30;92.00
2913;DHT22;1466;48.778;9.166;2023-04-24T08:47:02;14.40;91.60
2913;DHT22;1466;48.778;9.166;2023-04-24T08:49:29;14.30;91.60
2913;DHT22;1466;48.778;9.166;2023-04-24T08:51:55;14.20;92.10
2913;DHT22;1466;48.778;9.166;2023-04-24T08:54:21;14.00;92.60
2913;DHT22;1466;48.778;9.166;2023-04-24T08:56:48;14.00;93.30
2913;DHT22;1466;48.778;9.166;2023-04-24T08:59:15;13.90;92.70
2913;DHT22;1466;48.778;9.166;2023-04-24T09:01:41;13.90;92.90
2913;DHT22;1466;48.778;9.166;2023-04-24T09:04:08;14.00;93.10
2913;DHT22;1466;48.778;9.166;2023-04-24T09:06:35;14.00;93.10
2913;DHT22;1466;48.778;9.166;2023-04-24T09:09:02;14.10;93.00
2913;DHT22;1466;48.778;9.166;2023-04-24T09:11:30;13.90;92.60
2913;DHT22;1466;48.778;9.166;2023-04-24T09:13:56;13.80;93.20
2913;DHT22;1466;48.778;9.166;2023-04-24T09:16:22;13.70;93.40
2913;DHT22;1466;48.778;9.166;2023-04-24T09:18:50;13.60;94.10
2913;DHT22;1466;48.778;9.166;2023-04-24T09:21:15;13.50;95.40
2913;DHT22;1466;48.778;9.166;2023-04-24T09:23:41;13.30;95.80
2913;DHT22;1466;48.778;9.166;2023-04-24T09:26:09;13.30;96.40
2913;DHT22;1466;48.778;9.166;2023-04-24T09:28:37;13.20;96.50
2913;DHT22;1466;48.778;9.166;2023-04-24T09:31:08;13.20;97.20
2913;DHT22;1466;48.778;9.166;2023-04-24T09:36:02;13.10;97.90
2913;DHT22;1466;48.778;9.166;2023-04-24T09:41:05;13.20;97.80
2913;DHT22;1466;48.778;9.166;2023-04-24T09:43:31;13.40;97.20
2913;DHT22;1466;48.778;9.166;2023-04-24T09:45:58;13.50;96.90
2913;DHT22;1466;48.778;9.166;2023-04-24T09:48:31;13.60;96.90
2913;DHT22;1466;48.778;9.166;2023-04-24T09:50:57;13.80;96.10
2913;DHT22;1466;48.778;9.166;2023-04-24T09:53:26;13.90;95.60
2913;DHT22;1466;48.778;9.166;2023-04-24T09:55:52;14.00;95.40
2913;DHT22;1466;48.778;9.166;2023-04-24T09:58:24;13.90;95.10
2913;DHT22;1466;48.778;9.166;2023-04-24T10:00:49;14.00;94.70
2913;DHT22;1466;48.778;9.166;2023-04-24T10:03:18;14.00;93.90
2913;DHT22;1466;48.778;9.166;2023-04-24T10:05:46;14.00;93.70
2913;DHT22;1466;48.778;9.166;2023-04-24T10:08:12;14.10;93.20
2913;DHT22;1466;48.778;9.166;2023-04-24T10:10:40;14.20;93.00
2913;DHT22;1466;48.778;9.166;2023-04-24T10:13:08;14.20;91.90
2913;DHT22;1466;48.778;9.166;2023-04-24T10:15:35;14.30;91.50
2913;DHT22;1466;48.778;9.166;2023-04-24T10:18:02;14.30;90.50
2913;DHT22;1466;48.778;9.166;2023-04-24T10:20:29;14.30;89.60
2913;DHT22;1466;48.778;9.166;2023-04-24T10:22:57;14.30;89.00
2913;DHT22;1466;48.778;9.166;2023-04-24T10:25:24;14.40;88.20
2913;DHT22;1466;48.778;9.166;2023-04-24T10:27:52;14.40;86.90
2913;DHT22;1466;48.778;9.166;2023-04-24T10:30:20;14.70;86.30
2913;DHT22;1466;48.778;9.166;2023-04-24T10:32:46;14.90;84.70
2913;DHT22;1466;48.778;9.166;2023-04-24T10:35:13;14.80;83.40
2913;DHT22;1466;48.778;9.166;2023-04-24T10:37:48;14.80;83.00
2913;DHT22;1466;48.778;9.166;2023-04-24T10:40:18;14.70;83.30
2913;DHT22;1466;48.778;9.166;2023-04-24T10:42:48;14.60;84.20
2913;DHT22;1466;48.778;9.166;2023-04-24T10:45:18;14.60;84.50
2913;DHT22;1466;48.778;9.166;2023-04-24T10:48:02;14.50;84.90
2913;DHT22;1466;48.778;9.166;2023-04-24T10:50:29;14.60;85.60
2913;DHT22;1466;48.778;9.166;2023-04-24T10:53:06;14.70;85.70
2913;DHT22;1466;48.778;9.166;2023-04-24T10:58:07;14.50;84.80
2913;DHT22;1466;48.778;9.166;2023-04-24T11:00:36;14.60;85.40
2913;DHT22;1466;48.778;9.166;2023-04-24T11:03:05;14.70;85.20
2913;DHT22;1466;48.778;9.166;2023-04-24T11:10:54;14.90;85.20
2913;DHT22;1466;48.778;9.166;2023-04-24T11:13:27;14.60;84.90
2913;DHT22;1466;48.778;9.166;2023-04-24T11:16:12;14.50;85.70
2913;DHT22;1466;48.778;9.166;2023-04-24T11:18:38;14.50;85.90
2913;DHT22;1466;48.778;9.166;2023-04-24T11:21:13;14.60;86.80
2913;DHT22;1466;48.778;9.166;2023-04-24T11:23:41;14.70;86.20
2913;DHT22;1466;48.778;9.166;2023-04-24T11:26:23;15.00;86.10
2913;DHT22;1466;48.778;9.166;2023-04-24T11:29:06;15.20;85.50
2913;DHT22;1466;48.778;9.166;2023-04-24T11:31:40;15.40;83.80
2913;DHT22;1466;48.778;9.166;2023-04-24T11:34:14;15.50;83.10
2913;DHT22;1466;48.778;9.166;2023-04-24T11:36:46;15.50;81.90
2913;DHT22;1466;48.778;9.166;2023-04-24T11:39:12;15.60;82.10
2913;DHT22;1466;48.778;9.166;2023-04-24T11:41:38;15.80;82.60
2913;DHT22;1466;48.778;9.166;2023-04-24T11:44:07;16.00;82.10
2913;DHT22;1466;48.778;9.166;2023-04-24T11:46:33;16.00;81.70
2913;DHT22;1466;48.778;9.166;2023-04-24T11:48:59;15.90;81.70
2913;DHT22;1466;48.778;9.166;2023-04-24T11:51:26;15.60;82.20
2913;DHT22;1466;48.778;9.166;2023-04-24T11:53:55;15.40;82.90
2913;DHT22;1466;48.778;9.166;2023-04-24T11:56:22;15.00;83.50
2913;DHT22;1466;48.778;9.166;2023-04-24T11:58:48;14.80;85.40
2913;DHT22;1466;48.778;9.166;2023-04-24T12:01:13;14.80;86.70
2913;DHT22;1466;48.778;9.166;2023-04-24T12:03:39;14.90;86.70
2913;DHT22;1466;48.778;9.166;2023-04-24T12:06:09;14.90;86.70
2913;DHT22;1466;48.778;9.166;2023-04-24T12:08:36;14.90;84.80
2913;DHT22;1466;48.778;9.166;2023-04-24T12:11:03;15.00;85.10
2913;DHT22;1466;48.778;9.166;2023-04-24T12:13:29;15.30;85.30
2913;DHT22;1466;48.778;9.166;2023-04-24T12:15:56;15.30;84.20
2913;DHT22;1466;48.778;9.166;2023-04-24T12:18:23;15.30;84.10
2913;DHT22;1466;48.778;9.166;2023-04-24T12:20:49;15.20;83.90
2913;DHT22;1466;48.778;9.166;2023-04-24T12:23:15;15.10;83.90
2913;DHT22;1466;48.778;9.166;2023-04-24T12:25:40;15.00;83.90
2913;DHT22;1466;48.778;9.166;2023-04-24T12:30:42;14.90;84.30
2913;DHT22;1466;48.778;9.166;2023-04-24T12:33:11;15.00;83.60
2913;DHT22;1466;48.778;9.166;2023-04-24T12:35:36;15.10;83.00
2913;DHT22;1466;48.778;9.166;2023-04-24T12:38:12;15.00;82.90
2913;DHT22;1466;48.778;9.166;2023-04-24T12:40:39;15.00;82.70
2913;DHT22;1466;48.778;9.166;2023-04-24T12:43:19;14.90;82.60
2913;DHT22;1466;48.778;9.166;2023-04-24T12:45:47;15.00;82.50
2913;DHT22;1466;48.778;9.166;2023-04-24T12:48:13;15.20;82.70
2913;DHT22;1466;48.778;9.166;2023-04-24T12:50:39;15.30;82.30
2913;DHT22;1466;48.778;9.166;2023-04-24T12:53:06;15.30;81.80
2913;DHT22;1466;48.778;9.166;2023-04-24T12:55:32;15.20;81.90
2913;DHT22;1466;48.778;9.166;2023-04-24T12:57:58;15.30;82.20
2913;DHT22;1466;48.778;9.166;2023-04-24T13:00:23;15.10;82.00
2913;DHT22;1466;48.778;9.166;2023-04-24T13:02:49;15.00;82.50
2913;DHT22;1466;48.778;9.166;2023-04-24T13:05:14;14.90;83.40
2913;DHT22;1466;48.778;9.166;2023-04-24T13:07:40;14.90;84.10
2913;DHT22;1466;48.778;9.166;2023-04-24T13:10:07;14.90;87.80
2913;DHT22;1466;48.778;9.166;2023-04-24T13:12:32;14.90;90.60
2913;DHT22;1466;48.778;9.166;2023-04-24T13:14:58;14.90;91.40
2913;DHT22;1466;48.778;9.166;2023-04-24T13:17:24;15.00;92.60
2913;DHT22;1466;48.778;9.166;2023-04-24T13:19:50;15.00;92.60
2913;DHT22;1466;48.778;9.166;2023-04-24T13:22:17;15.00;92.50
2913;DHT22;1466;48.778;9.166;2023-04-24T13:24:44;15.00;92.40
2913;DHT22;1466;48.778;9.166;2023-04-24T13:27:10;15.10;92.70
2913;DHT22;1466;48.778;9.166;2023-04-24T13:29:36;15.20;92.60
2913;DHT22;1466;48.778;9.166;2023-04-24T13:32:03;15.40;92.60
2913;DHT22;1466;48.778;9.166;2023-04-24T13:34:28;15.40;92.70
2913;DHT22;1466;48.778;9.166;2023-04-24T13:36:55;15.50;92.80
2913;DHT22;1466;48.778;9.166;2023-04-24T13:39:22;15.40;92.40
2913;DHT22;1466;48.778;9.166;2023-04-24T13:41:48;15.30;92.50
2913;DHT22;1466;48.778;9.166;2023-04-24T13:44:17;15.30;92.40
2913;DHT22;1466;48.778;9.166;2023-04-24T13:46:45;15.10;91.40
2913;DHT22;1466;48.778;9.166;2023-04-24T13:49:12;14.90;91.10
2913;DHT22;1466;48.778;9.166;2023-04-24T13:51:39;14.60;91.50
2913;DHT22;1466;48.778;9.166;2023-04-24T13:54:05;14.10;93.00
2913;DHT22;1466;48.778;9.166;2023-04-24T13:56:31;13.70;95.30
2913;DHT22;1466;48.778;9.166;2023-04-24T13:58:56;13.50;96.90
2913;DHT22;1466;48.778;9.166;2023-04-24T14:01:22;13.20;98.30
2913;DHT22;1466;48.778;9.166;2023-04-24T14:03:52;13.10;98.90
2913;DHT22;1466;48.778;9.166;2023-04-24T14:06:20;13.30;99.90
2913;DHT22;1466;48.778;9.166;2023-04-24T14:08:47;13.40;99.90
2913;DHT22;1466;48.778;9.166;2023-04-24T14:11:13;13.50;99.90
2913;DHT22;1466;48.778;9.166;2023-04-24T14:13:39;13.50;99.40
2913;DHT22;1466;48.778;9.166;2023-04-24T14:16:06;13.60;99.20
2913;DHT22;1466;48.778;9.166;2023-04-24T14:18:31;13.70;99.30
2913;DHT22;1466;48.778;9.166;2023-04-24T14:20:57;13.70;99.00
2913;DHT22;1466;48.778;9.166;2023-04-24T14:23:23;13.90;99.10
2913;DHT22;1466;48.778;9.166;2023-04-24T14:25:49;14.00;98.80
2913;DHT22;1466;48.778;9.166;2023-04-24T14:28:20;14.00;98.30
2913;DHT22;1466;48.778;9.166;2023-04-24T14:30:47;14.10;98.50
2913;DHT22;1466;48.778;9.166;2023-04-24T14:33:13;14.30;98.30
2913;DHT22;1466;48.778;9.166;2023-04-24T14:35:40;14.40;98.00
2913;DHT22;1466;48.778;9.166;2023-04-24T14:38:07;14.50;97.60
2913;DHT22;1466;48.778;9.166;2023-04-24T14:40:33;14.50;97.20
2913;DHT22;1466;48.778;9.166;2023-04-24T14:42:58;14.70;96.90
2913;DHT22;1466;48.778;9.166;2023-04-24T14:45:24;14.70;95.90
2913;DHT22;1466;48.778;9.166;2023-04-24T14:47:50;14.50;95.20
2913;DHT22;1466;48.778;9.166;2023-04-24T14:50:16;14.50;95.30
2913;DHT22;1466;48.778;9.166;2023-04-24T14:52:42;14.50;95.00
2913;DHT22;1466;48.778;9.166;2023-04-24T14:55:08;14.60;95.00
2913;DHT22;1466;48.778;9.166;2023-04-24T14:57:34;14.60;94.40
2913;DHT22;1466;48.778;9.166;2023-04-24T15:00:01;14.60;94.50
2913;DHT22;1466;48.778;9.166;2023-04-24T15:02:28;14.70;94.40
2913;DHT22;1466;48.778;9.166;2023-04-24T15:04:54;14.80;94.40
2913;DHT22;1466;48.778;9.166;2023-04-24T15:07:20;14.90;94.20
2913;DHT22;1466;48.778;9.166;2023-04-24T15:09:45;14.90;93.90
2913;DHT22;1466;48.778;9.166;2023-04-24T15:12:12;14.70;93.80
2913;DHT22;1466;48.778;9.166;2023-04-24T15:14:38;14.60;93.90
2913;DHT22;1466;48.778;9.166;2023-04-24T15:17:04;14.70;93.70
2913;DHT22;1466;48.778;9.166;2023-04-24T15:19:31;14.70;93.70
2913;DHT22;1466;48.778;9.166;2023-04-24T15:21:57;14.70;93.60
2913;DHT22;1466;48.778;9.166;2023-04-24T15:24:22;14.70;93.60
2913;DHT22;1466;48.778;9.166;2023-04-24T15:26:48;14.70;93.30
2913;DHT22;1466;48.778;9.166;2023-04-24T15:29:13;14.70;93.10
2913;DHT22;1466;48.778;9.166;2023-04-24T15:31:39;14.60;92.90
2913;DHT22;1466;48.778;9.166;2023-04-24T15:34:05;14.50;92.50
2913;DHT22;1466;48.778;9.166;2023-04-24T15:36:31;14.30;92.60
2913;DHT22;1466;48.778;9.166;2023-04-24T15:38:57;14.20;93.70
2913;DHT22;1466;48.778;9.166;2023-04-24T15:41:23;13.90;96.90
2913;DHT22;1466;48.778;9.166;2023-04-24T15:43:48;13.80;98.10
2913;DHT22;1466;48.778;9.166;2023-04-24T15:46:14;13.60;98.40
2913;DHT22;1466;48.778;9.166;2023-04-24T15:48:42;13.50;99.10
2913;DHT22;1466;48.778;9.166;2023-04-24T15:51:07;13.40;99.40
2913;DHT22;1466;48.778;9.166;2023-04-24T15:53:33;13.50;99.80
2913;DHT22;1466;48.778;9.166;2023-04-24T15:55:58;13.50;99.90
2913;DHT22;1466;48.778;9.166;2023-04-24T15:58:24;13.50;99.90
2913;DHT22;1466;48.778;9.166;2023-04-24T16:00:50;13.60;99.90
2913;DHT22;1466;48.778;9.166;2023-04-24T16:03:15;13.70;99.90
2913;DHT22;1466;48.778;9.166;2023-04-24T16:05:41;13.80;99.90
2913;DHT22;1466;48.778;9.166;2023-04-24T16:08:07;13.90;99.90
2913;DHT22;1466;48.778;9.166;2023-04-24T16:10:32;14.00;99.90
2913;DHT22;1466;48.778;9.166;2023-04-24T16:12:58;14.20;99.80